sensor_id;sensor_type;location;lat;lon;timestamp;pressure;altitude;pressure_sealevel;temperature;humidity
65175;BME280;51761;42.126;24.752;2023-01-08T00:02:15;100282.28;;;4.04;78.28
65175;BME280;51761;42.126;24.752;2023-01-08T00:04:41;100285.56;;;4.10;78.37
65175;BME280;51761;42.126;24.752;2023-01-08T00:07:07;100280.53;;;3.96;78.82
65175;BME280;51761;42.126;24.752;2023-01-08T00:09:32;100288.75;;;4.12;78.73
65175;BME280;51761;42.126;24.752;2023-01-08T00:11:58;100289.69;;;4.00;78.80
65175;BME280;51761;42.126;24.752;2023-01-08T00:14:23;100265.47;;;3.94;79.04
65175;BME280;51761;42.126;24.752;2023-01-08T00:16:49;100290.41;;;3.97;79.34
65175;BME280;51761;42.126;24.752;2023-01-08T00:19:15;100266.88;;;3.84;79.76
65175;BME280;51761;42.126;24.752;2023-01-08T00:21:41;100279.66;;;3.92;79.03
65175;BME280;51761;42.126;24.752;2023-01-08T00:24:07;100259.56;;;3.76;79.10
65175;BME280;51761;42.126;24.752;2023-01-08T00:26:32;100294.78;;;3.98;79.18
65175;BME280;51761;42.126;24.752;2023-01-08T00:28:58;100288.00;;;3.96;79.13
65175;BME280;51761;42.126;24.752;2023-01-08T00:31:23;100285.09;;;3.89;79.04
65175;BME280;51761;42.126;24.752;2023-01-08T00:33:49;100285.09;;;3.89;79.09
65175;BME280;51761;42.126;24.752;2023-01-08T00:36:17;100291.34;;;3.86;79.25
65175;BME280;51761;42.126;24.752;2023-01-08T00:38:44;100275.22;;;3.88;79.07
65175;BME280;51761;42.126;24.752;2023-01-08T00:41:09;100289.75;;;3.85;79.82
65175;BME280;51761;42.126;24.752;2023-01-08T00:43:36;100285.91;;;3.89;79.98
65175;BME280;51761;42.126;24.752;2023-01-08T00:46:02;100287.13;;;3.92;79.32
65175;BME280;51761;42.126;24.752;2023-01-08T00:48:28;100294.34;;;3.96;80.06
65175;BME280;51761;42.126;24.752;2023-01-08T00:50:54;100266.06;;;3.84;79.23
65175;BME280;51761;42.126;24.752;2023-01-08T00:53:20;100291.25;;;3.98;79.16
65175;BME280;51761;42.126;24.752;2023-01-08T00:55:46;100294.50;;;3.84;79.18
65175;BME280;51761;42.126;24.752;2023-01-08T00:58:12;100290.00;;;3.95;79.16
65175;BME280;51761;42.126;24.752;2023-01-08T01:00:38;100289.97;;;3.76;79.88
65175;BME280;51761;42.126;24.752;2023-01-08T01:03:04;100277.75;;;3.77;79.74
65175;BME280;51761;42.126;24.752;2023-01-08T01:05:30;100298.63;;;3.75;79.83
65175;BME280;51761;42.126;24.752;2023-01-08T01:07:55;100286.84;;;3.78;80.04
65175;BME280;51761;42.126;24.752;2023-01-08T01:10:21;100271.63;;;3.68;79.82
65175;BME280;51761;42.126;24.752;2023-01-08T01:12:46;100265.16;;;3.61;79.95
65175;BME280;51761;42.126;24.752;2023-01-08T01:15:14;100287.94;;;3.73;80.06
65175;BME280;51761;42.126;24.752;2023-01-08T01:17:41;100262.59;;;3.52;80.11
65175;BME280;51761;42.126;24.752;2023-01-08T01:20:09;100277.44;;;3.63;80.26
65175;BME280;51761;42.126;24.752;2023-01-08T01:22:35;100250.31;;;3.50;80.42
65175;BME280;51761;42.126;24.752;2023-01-08T01:25:01;100267.63;;;3.66;80.69
65175;BME280;51761;42.126;24.752;2023-01-08T01:27:26;100275.84;;;3.62;80.15
65175;BME280;51761;42.126;24.752;2023-01-08T01:29:52;100240.44;;;3.49;80.23
65175;BME280;51761;42.126;24.752;2023-01-08T01:32:18;100264.72;;;3.59;80.93
65175;BME280;51761;42.126;24.752;2023-01-08T01:34:43;100269.22;;;3.67;80.62
65175;BME280;51761;42.126;24.752;2023-01-08T01:37:13;100254.53;;;3.63;80.50
65175;BME280;51761;42.126;24.752;2023-01-08T01:39:39;100266.69;;;3.58;80.65
65175;BME280;51761;42.126;24.752;2023-01-08T01:42:05;100260.00;;;3.59;80.54
65175;BME280;51761;42.126;24.752;2023-01-08T01:44:45;100263.78;;;3.70;80.67
65175;BME280;51761;42.126;24.752;2023-01-08T01:47:19;100261.66;;;3.64;80.25
65175;BME280;51761;42.126;24.752;2023-01-08T01:49:59;100243.63;;;3.51;79.93
65175;BME280;51761;42.126;24.752;2023-01-08T01:52:28;100261.09;;;3.55;80.09
65175;BME280;51761;42.126;24.752;2023-01-08T01:54:55;100239.13;;;3.43;80.45
65175;BME280;51761;42.126;24.752;2023-01-08T01:57:22;100260.00;;;3.59;80.23
65175;BME280;51761;42.126;24.752;2023-01-08T01:59:49;100257.84;;;3.68;80.00
65175;BME280;51761;42.126;24.752;2023-01-08T02:02:15;100252.16;;;3.61;80.25
65175;BME280;51761;42.126;24.752;2023-01-08T02:04:40;100248.97;;;3.59;80.12
65175;BME280;51761;42.126;24.752;2023-01-08T02:08:11;100237.25;;;3.66;80.05
65175;BME280;51761;42.126;24.752;2023-01-08T02:10:10;100252.97;;;3.81;79.15
65175;BME280;51761;42.126;24.752;2023-01-08T02:12:44;100251.16;;;3.69;79.11
65175;BME280;51761;42.126;24.752;2023-01-08T02:18:48;100252.22;;;3.65;79.55
65175;BME280;51761;42.126;24.752;2023-01-08T02:21:00;100244.88;;;3.72;79.56
65175;BME280;51761;42.126;24.752;2023-01-08T02:31:10;100250.06;;;3.74;79.91
65175;BME280;51761;42.126;24.752;2023-01-08T02:33:37;100244.66;;;3.62;79.38
65175;BME280;51761;42.126;24.752;2023-01-08T02:36:26;100247.84;;;3.64;79.33
65175;BME280;51761;42.126;24.752;2023-01-08T02:44:28;100222.66;;;3.31;79.86
65175;BME280;51761;42.126;24.752;2023-01-08T02:46:59;100240.06;;;3.50;79.63
65175;BME280;51761;42.126;24.752;2023-01-08T02:49:30;100243.00;;;3.57;80.16
65175;BME280;51761;42.126;24.752;2023-01-08T02:51:56;100224.94;;;3.44;79.68
65175;BME280;51761;42.126;24.752;2023-01-08T02:54:27;100249.59;;;3.53;79.61
65175;BME280;51761;42.126;24.752;2023-01-08T02:57:07;100245.44;;;3.43;79.77
65175;BME280;51761;42.126;24.752;2023-01-08T02:59:36;100246.31;;;3.47;79.60
65175;BME280;51761;42.126;24.752;2023-01-08T03:02:02;100243.59;;;3.32;79.55
65175;BME280;51761;42.126;24.752;2023-01-08T03:04:33;100234.00;;;3.26;80.01
65175;BME280;51761;42.126;24.752;2023-01-08T03:07:01;100242.00;;;3.31;79.86
65175;BME280;51761;42.126;24.752;2023-01-08T03:09:28;100226.78;;;3.21;79.80
65175;BME280;51761;42.126;24.752;2023-01-08T03:12:01;100244.56;;;3.39;79.66
65175;BME280;51761;42.126;24.752;2023-01-08T03:14:31;100248.75;;;3.33;79.83
65175;BME280;51761;42.126;24.752;2023-01-08T03:17:16;100250.63;;;3.45;79.62
65175;BME280;51761;42.126;24.752;2023-01-08T03:19:49;100239.72;;;3.52;79.54
65175;BME280;51761;42.126;24.752;2023-01-08T03:22:18;100239.19;;;3.46;78.83
65175;BME280;51761;42.126;24.752;2023-01-08T03:24:47;100246.13;;;3.56;80.89
65175;BME280;51761;42.126;24.752;2023-01-08T03:27:18;100237.19;;;3.28;78.75
65175;BME280;51761;42.126;24.752;2023-01-08T03:29:48;100236.22;;;3.20;79.06
65175;BME280;51761;42.126;24.752;2023-01-08T03:32:16;100248.53;;;3.23;80.11
65175;BME280;51761;42.126;24.752;2023-01-08T03:34:44;100228.94;;;3.12;79.65
65175;BME280;51761;42.126;24.752;2023-01-08T03:37:12;100240.53;;;3.18;80.10
65175;BME280;51761;42.126;24.752;2023-01-08T03:42:23;100236.69;;;3.07;80.79
65175;BME280;51761;42.126;24.752;2023-01-08T03:44:50;100211.44;;;2.90;79.62
65175;BME280;51761;42.126;24.752;2023-01-08T03:47:18;100237.22;;;3.12;78.93
65175;BME280;51761;42.126;24.752;2023-01-08T03:49:45;100234.06;;;2.95;79.05
65175;BME280;51761;42.126;24.752;2023-01-08T03:52:27;100234.41;;;2.78;78.87
65175;BME280;51761;42.126;24.752;2023-01-08T03:54:54;100241.97;;;2.81;78.84
65175;BME280;51761;42.126;24.752;2023-01-08T03:57:19;100233.69;;;2.81;78.93
65175;BME280;51761;42.126;24.752;2023-01-08T03:59:45;100234.13;;;2.83;78.59
65175;BME280;51761;42.126;24.752;2023-01-08T04:02:11;100232.47;;;2.79;78.46
65175;BME280;51761;42.126;24.752;2023-01-08T04:04:37;100237.59;;;2.80;78.36
65175;BME280;51761;42.126;24.752;2023-01-08T04:07:02;100225.78;;;2.64;78.82
65175;BME280;51761;42.126;24.752;2023-01-08T04:09:28;100233.53;;;2.74;78.49
65175;BME280;51761;42.126;24.752;2023-01-08T04:11:53;100237.28;;;2.66;77.82
65175;BME280;51761;42.126;24.752;2023-01-08T04:14:19;100243.56;;;2.67;78.95
65175;BME280;51761;42.126;24.752;2023-01-08T04:16:44;100214.31;;;2.62;79.19
65175;BME280;51761;42.126;24.752;2023-01-08T04:19:11;100246.16;;;2.75;79.36
65175;BME280;51761;42.126;24.752;2023-01-08T04:21:37;100248.91;;;2.75;79.28
65175;BME280;51761;42.126;24.752;2023-01-08T04:24:03;100239.84;;;2.75;79.10
65175;BME280;51761;42.126;24.752;2023-01-08T04:26:29;100226.84;;;2.60;78.77
65175;BME280;51761;42.126;24.752;2023-01-08T04:28:54;100254.59;;;2.82;79.26
65175;BME280;51761;42.126;24.752;2023-01-08T04:31:20;100259.59;;;2.77;78.98
65175;BME280;51761;42.126;24.752;2023-01-08T04:33:45;100264.94;;;2.70;78.23
65175;BME280;51761;42.126;24.752;2023-01-08T04:36:11;100263.69;;;2.52;78.67
65175;BME280;51761;42.126;24.752;2023-01-08T04:38:37;100254.84;;;2.46;79.12
65175;BME280;51761;42.126;24.752;2023-01-08T04:41:03;100237.72;;;2.68;80.52
65175;BME280;51761;42.126;24.752;2023-01-08T04:43:29;100253.91;;;2.70;79.30
65175;BME280;51761;42.126;24.752;2023-01-08T04:46:03;100236.28;;;2.43;79.16
65175;BME280;51761;42.126;24.752;2023-01-08T04:48:29;100243.53;;;2.36;79.71
65175;BME280;51761;42.126;24.752;2023-01-08T04:50:58;100262.69;;;2.75;80.64
65175;BME280;51761;42.126;24.752;2023-01-08T04:53:24;100259.22;;;2.63;80.17
65175;BME280;51761;42.126;24.752;2023-01-08T04:55:50;100269.81;;;2.61;79.94
65175;BME280;51761;42.126;24.752;2023-01-08T04:58:16;100280.22;;;2.67;80.41
65175;BME280;51761;42.126;24.752;2023-01-08T05:00:41;100274.81;;;2.86;80.40
65175;BME280;51761;42.126;24.752;2023-01-08T05:03:07;100242.50;;;2.71;79.77
65175;BME280;51761;42.126;24.752;2023-01-08T05:05:33;100284.44;;;2.77;79.53
65175;BME280;51761;42.126;24.752;2023-01-08T05:07:59;100254.69;;;2.70;79.48
65175;BME280;51761;42.126;24.752;2023-01-08T05:10:24;100271.06;;;2.94;79.82
65175;BME280;51761;42.126;24.752;2023-01-08T05:12:50;100272.69;;;2.95;79.66
65175;BME280;51761;42.126;24.752;2023-01-08T05:15:15;100272.22;;;2.93;79.73
65175;BME280;51761;42.126;24.752;2023-01-08T05:17:41;100259.50;;;2.89;79.37
65175;BME280;51761;42.126;24.752;2023-01-08T05:20:07;100250.97;;;2.78;79.35
65175;BME280;51761;42.126;24.752;2023-01-08T05:22:33;100257.28;;;2.79;79.31
65175;BME280;51761;42.126;24.752;2023-01-08T05:24:58;100283.44;;;3.00;78.95
65175;BME280;51761;42.126;24.752;2023-01-08T05:27:24;100279.69;;;2.93;79.18
65175;BME280;51761;42.126;24.752;2023-01-08T05:29:49;100286.19;;;3.00;79.40
65175;BME280;51761;42.126;24.752;2023-01-08T05:32:17;100284.44;;;2.92;79.62
65175;BME280;51761;42.126;24.752;2023-01-08T05:34:43;100283.00;;;2.98;79.84
65175;BME280;51761;42.126;24.752;2023-01-08T05:37:09;100291.53;;;2.93;79.74
65175;BME280;51761;42.126;24.752;2023-01-08T05:39:35;100283.97;;;2.90;79.37
65175;BME280;51761;42.126;24.752;2023-01-08T05:42:01;100279.34;;;2.79;79.78
65175;BME280;51761;42.126;24.752;2023-01-08T05:44:26;100292.78;;;2.80;80.65
65175;BME280;51761;42.126;24.752;2023-01-08T05:46:52;100291.63;;;2.81;81.06
65175;BME280;51761;42.126;24.752;2023-01-08T05:49:18;100295.28;;;2.85;80.31
65175;BME280;51761;42.126;24.752;2023-01-08T05:51:46;100294.38;;;2.81;80.25
65175;BME280;51761;42.126;24.752;2023-01-08T05:54:12;100296.88;;;2.86;80.12
65175;BME280;51761;42.126;24.752;2023-01-08T05:56:38;100292.53;;;2.85;80.34
65175;BME280;51761;42.126;24.752;2023-01-08T05:59:03;100278.38;;;2.71;80.27
65175;BME280;51761;42.126;24.752;2023-01-08T06:01:29;100300.59;;;2.78;80.46
65175;BME280;51761;42.126;24.752;2023-01-08T06:03:54;100297.78;;;3.06;79.61
65175;BME280;51761;42.126;24.752;2023-01-08T06:06:21;100302.78;;;3.50;78.08
65175;BME280;51761;42.126;24.752;2023-01-08T06:08:46;100301.19;;;4.02;76.09
65175;BME280;51761;42.126;24.752;2023-01-08T06:11:12;100298.34;;;4.56;73.43
65175;BME280;51761;42.126;24.752;2023-01-08T06:13:40;100301.22;;;5.07;71.59
65175;BME280;51761;42.126;24.752;2023-01-08T06:16:06;100299.41;;;5.67;68.95
65175;BME280;51761;42.126;24.752;2023-01-08T06:18:32;100306.16;;;5.95;67.55
65175;BME280;51761;42.126;24.752;2023-01-08T06:20:57;100303.81;;;7.46;100.00
65175;BME280;51761;42.126;24.752;2023-01-08T06:23:23;100302.09;;;8.70;100.00
65175;BME280;51761;42.126;24.752;2023-01-08T06:25:53;100289.44;;;9.46;100.00
65175;BME280;51761;42.126;24.752;2023-01-08T06:28:19;100303.63;;;10.32;100.00
65175;BME280;51761;42.126;24.752;2023-01-08T06:30:45;100275.84;;;10.79;87.88
65175;BME280;51761;42.126;24.752;2023-01-08T06:33:10;100302.09;;;11.46;79.31
65175;BME280;51761;42.126;24.752;2023-01-08T06:35:36;100309.28;;;11.51;57.90
65175;BME280;51761;42.126;24.752;2023-01-08T06:38:01;100304.78;;;12.01;79.53
65175;BME280;51761;42.126;24.752;2023-01-08T06:40:27;100301.69;;;12.29;78.28
65175;BME280;51761;42.126;24.752;2023-01-08T06:42:52;100311.63;;;12.96;70.75
65175;BME280;51761;42.126;24.752;2023-01-08T06:45:18;100323.81;;;13.13;60.21
65175;BME280;51761;42.126;24.752;2023-01-08T06:47:43;100319.59;;;13.51;69.58
65175;BME280;51761;42.126;24.752;2023-01-08T06:50:09;100309.84;;;13.59;65.81
65175;BME280;51761;42.126;24.752;2023-01-08T06:52:35;100322.22;;;14.07;75.71
65175;BME280;51761;42.126;24.752;2023-01-08T06:55:01;100316.44;;;14.56;70.73
65175;BME280;51761;42.126;24.752;2023-01-08T06:57:26;100339.97;;;15.37;67.91
65175;BME280;51761;42.126;24.752;2023-01-08T06:59:52;100333.41;;;15.91;62.64
65175;BME280;51761;42.126;24.752;2023-01-08T07:02:18;100310.09;;;16.19;63.59
65175;BME280;51761;42.126;24.752;2023-01-08T07:04:43;100334.44;;;16.70;54.87
65175;BME280;51761;42.126;24.752;2023-01-08T07:07:15;100343.00;;;16.66;53.62
65175;BME280;51761;42.126;24.752;2023-01-08T07:09:41;100335.50;;;16.88;53.93
65175;BME280;51761;42.126;24.752;2023-01-08T07:12:13;100341.50;;;16.33;52.24
65175;BME280;51761;42.126;24.752;2023-01-08T07:14:39;100331.63;;;16.41;55.00
65175;BME280;51761;42.126;24.752;2023-01-08T07:17:05;100337.06;;;16.48;47.92
65175;BME280;51761;42.126;24.752;2023-01-08T07:19:31;100344.47;;;15.98;40.23
65175;BME280;51761;42.126;24.752;2023-01-08T07:21:57;100340.88;;;15.66;46.00
65175;BME280;51761;42.126;24.752;2023-01-08T07:24:22;100331.63;;;15.49;49.04
65175;BME280;51761;42.126;24.752;2023-01-08T07:26:48;100351.09;;;15.60;54.20
65175;BME280;51761;42.126;24.752;2023-01-08T07:29:13;100363.03;;;15.95;47.97
65175;BME280;51761;42.126;24.752;2023-01-08T07:31:39;100334.78;;;15.99;52.42
65175;BME280;51761;42.126;24.752;2023-01-08T07:34:04;100358.13;;;15.84;46.26
65175;BME280;51761;42.126;24.752;2023-01-08T07:36:30;100361.53;;;15.59;38.85
65175;BME280;51761;42.126;24.752;2023-01-08T07:38:55;100369.28;;;14.84;40.78
65175;BME280;51761;42.126;24.752;2023-01-08T07:41:21;100363.41;;;14.56;41.35
65175;BME280;51761;42.126;24.752;2023-01-08T07:43:47;100353.03;;;14.11;42.08
65175;BME280;51761;42.126;24.752;2023-01-08T07:46:13;100365.84;;;13.89;42.21
65175;BME280;51761;42.126;24.752;2023-01-08T07:48:39;100365.00;;;13.19;43.98
65175;BME280;51761;42.126;24.752;2023-01-08T07:51:06;100362.88;;;12.97;44.30
65175;BME280;51761;42.126;24.752;2023-01-08T07:53:32;100365.84;;;12.53;44.85
65175;BME280;51761;42.126;24.752;2023-01-08T07:56:02;100375.09;;;12.50;45.80
65175;BME280;51761;42.126;24.752;2023-01-08T07:58:28;100368.16;;;12.25;46.17
65175;BME280;51761;42.126;24.752;2023-01-08T08:00:54;100365.25;;;12.32;47.21
65175;BME280;51761;42.126;24.752;2023-01-08T08:03:19;100364.47;;;12.31;47.08
65175;BME280;51761;42.126;24.752;2023-01-08T08:05:45;100361.25;;;12.33;45.90
65175;BME280;51761;42.126;24.752;2023-01-08T08:08:11;100366.47;;;12.67;46.00
65175;BME280;51761;42.126;24.752;2023-01-08T08:10:37;100369.88;;;12.82;46.11
65175;BME280;51761;42.126;24.752;2023-01-08T08:13:03;100366.66;;;13.13;44.59
65175;BME280;51761;42.126;24.752;2023-01-08T08:15:29;100363.56;;;13.34;43.55
65175;BME280;51761;42.126;24.752;2023-01-08T08:17:54;100366.88;;;13.52;43.57
65175;BME280;51761;42.126;24.752;2023-01-08T08:20:20;100370.63;;;13.69;43.65
65175;BME280;51761;42.126;24.752;2023-01-08T08:22:45;100372.03;;;13.57;43.73
65175;BME280;51761;42.126;24.752;2023-01-08T08:25:11;100364.16;;;13.72;43.48
65175;BME280;51761;42.126;24.752;2023-01-08T08:27:40;100351.16;;;13.81;43.40
65175;BME280;51761;42.126;24.752;2023-01-08T08:30:06;100352.44;;;14.00;43.66
65175;BME280;51761;42.126;24.752;2023-01-08T08:32:31;100366.66;;;14.12;43.00
65175;BME280;51761;42.126;24.752;2023-01-08T08:34:58;100338.75;;;14.02;43.28
65175;BME280;51761;42.126;24.752;2023-01-08T08:37:23;100354.94;;;13.94;42.64
65175;BME280;51761;42.126;24.752;2023-01-08T08:39:49;100368.25;;;14.13;42.88
65175;BME280;51761;42.126;24.752;2023-01-08T08:42:14;100361.31;;;14.40;42.91
65175;BME280;51761;42.126;24.752;2023-01-08T08:44:40;100336.91;;;14.37;42.46
65175;BME280;51761;42.126;24.752;2023-01-08T08:47:07;100363.28;;;14.82;42.17
65175;BME280;51761;42.126;24.752;2023-01-08T08:49:33;100366.16;;;14.40;42.34
65175;BME280;51761;42.126;24.752;2023-01-08T08:52:00;100368.25;;;14.36;42.56
65175;BME280;51761;42.126;24.752;2023-01-08T08:54:26;100342.66;;;14.50;42.16
65175;BME280;51761;42.126;24.752;2023-01-08T08:56:51;100353.69;;;14.80;39.55
65175;BME280;51761;42.126;24.752;2023-01-08T08:59:17;100358.31;;;14.90;39.83
65175;BME280;51761;42.126;24.752;2023-01-08T09:01:42;100353.97;;;14.85;40.96
65175;BME280;51761;42.126;24.752;2023-01-08T09:04:08;100355.84;;;14.72;41.27
65175;BME280;51761;42.126;24.752;2023-01-08T09:06:33;100334.59;;;14.71;40.53
65175;BME280;51761;42.126;24.752;2023-01-08T09:08:59;100335.88;;;14.86;40.72
65175;BME280;51761;42.126;24.752;2023-01-08T09:11:24;100356.59;;;15.31;40.07
65175;BME280;51761;42.126;24.752;2023-01-08T09:13:50;100330.63;;;15.24;40.05
65175;BME280;51761;42.126;24.752;2023-01-08T09:16:15;100334.28;;;15.72;39.64
65175;BME280;51761;42.126;24.752;2023-01-08T09:18:41;100336.56;;;15.45;39.08
65175;BME280;51761;42.126;24.752;2023-01-08T09:21:07;100343.06;;;15.74;39.33
65175;BME280;51761;42.126;24.752;2023-01-08T09:23:33;100316.66;;;15.84;39.46
65175;BME280;51761;42.126;24.752;2023-01-08T09:26:00;100336.63;;;16.05;38.70
65175;BME280;51761;42.126;24.752;2023-01-08T09:28:26;100331.91;;;16.31;37.99
65175;BME280;51761;42.126;24.752;2023-01-08T09:30:51;100335.53;;;16.31;38.09
65175;BME280;51761;42.126;24.752;2023-01-08T09:33:17;100319.03;;;16.30;37.27
65175;BME280;51761;42.126;24.752;2023-01-08T09:35:43;100319.69;;;16.21;36.61
65175;BME280;51761;42.126;24.752;2023-01-08T09:38:08;100300.78;;;16.06;38.00
65175;BME280;51761;42.126;24.752;2023-01-08T09:40:38;100292.84;;;16.17;38.11
65175;BME280;51761;42.126;24.752;2023-01-08T09:43:07;100311.28;;;15.89;38.33
65175;BME280;51761;42.126;24.752;2023-01-08T09:45:37;100309.22;;;16.22;36.92
65175;BME280;51761;42.126;24.752;2023-01-08T09:48:11;100298.25;;;16.40;36.78
65175;BME280;51761;42.126;24.752;2023-01-08T09:50:38;100278.59;;;16.08;36.86
65175;BME280;51761;42.126;24.752;2023-01-08T09:53:04;100292.00;;;16.32;38.15
65175;BME280;51761;42.126;24.752;2023-01-08T09:55:32;100292.00;;;16.32;38.23
65175;BME280;51761;42.126;24.752;2023-01-08T09:57:59;100292.09;;;16.29;37.91
65175;BME280;51761;42.126;24.752;2023-01-08T10:00:30;100282.91;;;16.41;36.80
65175;BME280;51761;42.126;24.752;2023-01-08T10:02:56;100280.06;;;16.69;37.20
65175;BME280;51761;42.126;24.752;2023-01-08T10:05:22;100284.94;;;16.94;36.31
65175;BME280;51761;42.126;24.752;2023-01-08T10:07:48;100263.44;;;16.59;37.22
65175;BME280;51761;42.126;24.752;2023-01-08T10:10:25;100272.06;;;16.80;36.89
65175;BME280;51761;42.126;24.752;2023-01-08T10:12:52;100272.41;;;17.07;36.64
65175;BME280;51761;42.126;24.752;2023-01-08T10:15:20;100274.56;;;16.91;36.67
65175;BME280;51761;42.126;24.752;2023-01-08T10:18:04;100271.66;;;17.07;36.72
65175;BME280;51761;42.126;24.752;2023-01-08T10:20:33;100257.56;;;16.53;37.42
65175;BME280;51761;42.126;24.752;2023-01-08T10:23:13;100258.97;;;16.74;36.66
65175;BME280;51761;42.126;24.752;2023-01-08T10:25:59;100258.84;;;16.65;37.73
65175;BME280;51761;42.126;24.752;2023-01-08T10:28:27;100245.09;;;16.92;36.88
65175;BME280;51761;42.126;24.752;2023-01-08T10:30:58;100240.69;;;17.03;36.63
65175;BME280;51761;42.126;24.752;2023-01-08T10:33:39;100239.78;;;17.19;34.82
65175;BME280;51761;42.126;24.752;2023-01-08T10:36:07;100235.97;;;17.13;35.83
65175;BME280;51761;42.126;24.752;2023-01-08T10:38:41;100230.97;;;16.79;36.41
65175;BME280;51761;42.126;24.752;2023-01-08T10:41:13;100232.13;;;17.07;35.35
65175;BME280;51761;42.126;24.752;2023-01-08T10:46:26;100222.09;;;16.81;36.27
65175;BME280;51761;42.126;24.752;2023-01-08T10:48:55;100222.38;;;16.58;36.59
65175;BME280;51761;42.126;24.752;2023-01-08T10:51:22;100216.53;;;16.24;37.63
65175;BME280;51761;42.126;24.752;2023-01-08T10:53:49;100209.97;;;16.14;37.49
65175;BME280;51761;42.126;24.752;2023-01-08T10:56:28;100191.34;;;16.45;37.30
65175;BME280;51761;42.126;24.752;2023-01-08T10:58:55;100210.47;;;16.79;36.34
65175;BME280;51761;42.126;24.752;2023-01-08T11:01:25;100194.41;;;16.51;36.74
65175;BME280;51761;42.126;24.752;2023-01-08T11:03:58;100193.41;;;16.70;36.13
65175;BME280;51761;42.126;24.752;2023-01-08T11:06:26;100194.66;;;16.94;37.95
65175;BME280;51761;42.126;24.752;2023-01-08T11:09:01;100188.00;;;16.88;36.22
65175;BME280;51761;42.126;24.752;2023-01-08T11:11:31;100187.63;;;17.23;35.47
65175;BME280;51761;42.126;24.752;2023-01-08T11:13:59;100180.41;;;17.22;35.46
65175;BME280;51761;42.126;24.752;2023-01-08T11:16:37;100180.59;;;17.28;35.51
65175;BME280;51761;42.126;24.752;2023-01-08T11:19:04;100180.84;;;17.33;35.36
65175;BME280;51761;42.126;24.752;2023-01-08T11:21:39;100191.22;;;17.49;35.06
65175;BME280;51761;42.126;24.752;2023-01-08T11:24:17;100180.41;;;17.35;35.34
65175;BME280;51761;42.126;24.752;2023-01-08T11:26:50;100175.06;;;17.49;35.45
65175;BME280;51761;42.126;24.752;2023-01-08T11:29:35;100183.06;;;17.51;35.03
65175;BME280;51761;42.126;24.752;2023-01-08T11:35:24;100171.44;;;17.49;34.67
65175;BME280;51761;42.126;24.752;2023-01-08T11:37:55;100169.56;;;17.33;34.71
65175;BME280;51761;42.126;24.752;2023-01-08T11:43:01;100160.94;;;17.49;34.75
65175;BME280;51761;42.126;24.752;2023-01-08T11:48:30;100164.66;;;17.58;34.88
65175;BME280;51761;42.126;24.752;2023-01-08T12:07:27;100138.13;;;17.44;34.62
65175;BME280;51761;42.126;24.752;2023-01-08T12:10:00;100133.97;;;17.69;34.58
65175;BME280;51761;42.126;24.752;2023-01-08T12:26:37;100127.47;;;18.03;35.73
65175;BME280;51761;42.126;24.752;2023-01-08T12:37:45;100130.47;;;18.08;33.41
65175;BME280;51761;42.126;24.752;2023-01-08T12:40:26;100126.91;;;17.86;33.76
65175;BME280;51761;42.126;24.752;2023-01-08T12:42:58;100130.03;;;17.88;33.65
65175;BME280;51761;42.126;24.752;2023-01-08T12:45:29;100127.28;;;17.97;33.27
65175;BME280;51761;42.126;24.752;2023-01-08T12:48:16;100130.22;;;17.94;33.55
65175;BME280;51761;42.126;24.752;2023-01-08T13:01:10;100118.09;;;17.17;34.28
65175;BME280;51761;42.126;24.752;2023-01-08T13:03:39;100109.69;;;17.26;34.16
65175;BME280;51761;42.126;24.752;2023-01-08T13:06:08;100126.66;;;17.13;35.36
65175;BME280;51761;42.126;24.752;2023-01-08T13:08:37;100117.66;;;17.06;35.04
65175;BME280;51761;42.126;24.752;2023-01-08T13:11:04;100121.81;;;17.14;35.04
65175;BME280;51761;42.126;24.752;2023-01-08T13:13:38;100111.13;;;17.09;34.47
65175;BME280;51761;42.126;24.752;2023-01-08T13:19:02;100119.03;;;17.48;34.05
65175;BME280;51761;42.126;24.752;2023-01-08T13:24:24;100115.81;;;17.58;34.42
65175;BME280;51761;42.126;24.752;2023-01-08T13:26:51;100103.66;;;17.49;34.07
65175;BME280;51761;42.126;24.752;2023-01-08T13:29:48;100121.47;;;17.24;34.15
65175;BME280;51761;42.126;24.752;2023-01-08T13:32:44;100121.25;;;17.19;33.83
65175;BME280;51761;42.126;24.752;2023-01-08T13:38:12;100123.03;;;16.54;35.33
65175;BME280;51761;42.126;24.752;2023-01-08T13:43:37;100117.56;;;16.72;34.96
65175;BME280;51761;42.126;24.752;2023-01-08T13:46:22;100095.72;;;16.63;34.81
65175;BME280;51761;42.126;24.752;2023-01-08T13:48:59;100115.66;;;16.31;35.42
65175;BME280;51761;42.126;24.752;2023-01-08T13:51:39;100113.28;;;16.30;36.19
65175;BME280;51761;42.126;24.752;2023-01-08T13:56:39;100109.84;;;15.97;36.31
65175;BME280;51761;42.126;24.752;2023-01-08T13:59:05;100107.78;;;15.86;36.42
65175;BME280;51761;42.126;24.752;2023-01-08T14:01:31;100108.66;;;15.70;36.79
65175;BME280;51761;42.126;24.752;2023-01-08T14:03:56;100110.53;;;15.32;37.50
65175;BME280;51761;42.126;24.752;2023-01-08T14:06:24;100096.13;;;14.98;37.84
65175;BME280;51761;42.126;24.752;2023-01-08T14:08:51;100117.50;;;14.96;38.57
65175;BME280;51761;42.126;24.752;2023-01-08T14:11:18;100092.63;;;14.78;39.33
65175;BME280;51761;42.126;24.752;2023-01-08T14:13:45;100109.16;;;14.76;39.28
65175;BME280;51761;42.126;24.752;2023-01-08T14:16:13;100099.81;;;14.63;38.98
65175;BME280;51761;42.126;24.752;2023-01-08T14:18:40;100108.97;;;14.51;39.82
65175;BME280;51761;42.126;24.752;2023-01-08T14:21:06;100084.09;;;14.15;40.05
65175;BME280;51761;42.126;24.752;2023-01-08T14:23:36;100090.31;;;14.06;40.44
65175;BME280;51761;42.126;24.752;2023-01-08T14:26:05;100113.88;;;13.93;40.94